<?xml version="1.0" encoding="UTF-8" standalone="no" ?>
<gpx xmlns="http://www.topografix.com/GPX/1/1" xmlns:xsi="http://www.w3.org/2001/XMLSchema-instance" xsi:schemaLocation="http://www.topografix.com/GPX/1/1 http://www.topografix.com/GPX/1/1/gpx.xsd" version="1.1" creator="VisuGPX - https://www.visugpx.com">
  <metadata>
    <name>3437892-randonnée minière madifiée</name>
  </metadata>
  <trk>
    <name><![CDATA[3437892-randonnée minière madifiée]]></name>
    <trkseg>
      <trkpt lat="45.90192" lon="4.02568">
        <ele>521</ele>
        <time>2021-07-26T14:38:18Z</time>
      </trkpt>
      <trkpt lat="45.90417" lon="4.02486">
        <ele>539</ele>
        <time>2021-07-26T14:41:24Z</time>
      </trkpt>
      <trkpt lat="45.90589" lon="4.02312">
        <ele>551</ele>
        <time>2021-07-26T14:44:12Z</time>
      </trkpt>
      <trkpt lat="45.91056" lon="4.02179">
        <ele>560</ele>
        <time>2021-07-26T14:50:33Z</time>
      </trkpt>
      <trkpt lat="45.91694" lon="4.01591">
        <ele>558</ele>
        <time>2021-07-26T15:00:40Z</time>
      </trkpt>
      <trkpt lat="45.91927" lon="4.01604">
        <ele>533</ele>
        <time>2021-07-26T15:03:47Z</time>
      </trkpt>
      <trkpt lat="45.92104" lon="4.01628">
        <ele>523</ele>
        <time>2021-07-26T15:06:09Z</time>
      </trkpt>
      <trkpt lat="45.92568" lon="4.0187">
        <ele>437</ele>
        <time>2021-07-26T15:12:45Z</time>
      </trkpt>
      <trkpt lat="45.92948" lon="4.01937">
        <ele>404</ele>
        <time>2021-07-26T15:17:51Z</time>
      </trkpt>
      <trkpt lat="45.92965" lon="4.02049">
        <ele>402</ele>
        <time>2021-07-26T15:18:55Z</time>
      </trkpt>
      <trkpt lat="45.92862" lon="4.02233">
        <ele>401</ele>
        <time>2021-07-26T15:21:06Z</time>
      </trkpt>
      <trkpt lat="45.92777" lon="4.02247">
        <ele>404</ele>
        <time>2021-07-26T15:22:15Z</time>
      </trkpt>
      <trkpt lat="45.9279" lon="4.02388">
        <ele>395</ele>
        <time>2021-07-26T15:23:34Z</time>
      </trkpt>
      <trkpt lat="45.92684" lon="4.02471">
        <ele>404</ele>
        <time>2021-07-26T15:25:11Z</time>
      </trkpt>
      <trkpt lat="45.92784" lon="4.02875">
        <ele>385</ele>
        <time>2021-07-26T15:29:10Z</time>
      </trkpt>
      <trkpt lat="45.92951" lon="4.03098">
        <ele>370</ele>
        <time>2021-07-26T15:32:12Z</time>
      </trkpt>
      <trkpt lat="45.92808" lon="4.03145">
        <ele>362</ele>
        <time>2021-07-26T15:34:10Z</time>
      </trkpt>
      <trkpt lat="45.9267" lon="4.03111">
        <ele>368</ele>
        <time>2021-07-26T15:36:02Z</time>
      </trkpt>
      <trkpt lat="45.9287" lon="4.0342">
        <ele>372</ele>
        <time>2021-07-26T15:39:57Z</time>
      </trkpt>
      <trkpt lat="45.92741" lon="4.03442">
        <ele>387</ele>
        <time>2021-07-26T15:41:41Z</time>
      </trkpt>
      <trkpt lat="45.9264" lon="4.03314">
        <ele>404</ele>
        <time>2021-07-26T15:43:29Z</time>
      </trkpt>
      <trkpt lat="45.92522" lon="4.03357">
        <ele>412</ele>
        <time>2021-07-26T15:45:06Z</time>
      </trkpt>
      <trkpt lat="45.92453" lon="4.0329">
        <ele>415</ele>
        <time>2021-07-26T15:46:13Z</time>
      </trkpt>
      <trkpt lat="45.92209" lon="4.03162">
        <ele>426</ele>
        <time>2021-07-26T15:49:41Z</time>
      </trkpt>
      <trkpt lat="45.91814" lon="4.03076">
        <ele>456</ele>
        <time>2021-07-26T15:55:01Z</time>
      </trkpt>
      <trkpt lat="45.91754" lon="4.03218">
        <ele>446</ele>
        <time>2021-07-26T15:56:33Z</time>
      </trkpt>
      <trkpt lat="45.91644" lon="4.03308">
        <ele>447</ele>
        <time>2021-07-26T15:58:14Z</time>
      </trkpt>
      <trkpt lat="45.91452" lon="4.03166">
        <ele>488</ele>
        <time>2021-07-26T16:01:07Z</time>
      </trkpt>
      <trkpt lat="45.91411" lon="4.03272">
        <ele>480</ele>
        <time>2021-07-26T16:02:15Z</time>
      </trkpt>
      <trkpt lat="45.9142" lon="4.03484">
        <ele>477</ele>
        <time>2021-07-26T16:04:13Z</time>
      </trkpt>
      <trkpt lat="45.91652" lon="4.03662">
        <ele>427</ele>
        <time>2021-07-26T16:07:44Z</time>
      </trkpt>
      <trkpt lat="45.91627" lon="4.03741">
        <ele>423</ele>
        <time>2021-07-26T16:08:32Z</time>
      </trkpt>
      <trkpt lat="45.91474" lon="4.03818">
        <ele>421</ele>
        <time>2021-07-26T16:10:42Z</time>
      </trkpt>
      <trkpt lat="45.91502" lon="4.04113">
        <ele>412</ele>
        <time>2021-07-26T16:13:28Z</time>
      </trkpt>
      <trkpt lat="45.91322" lon="4.04158">
        <ele>426</ele>
        <time>2021-07-26T16:15:54Z</time>
      </trkpt>
      <trkpt lat="45.9136" lon="4.04368">
        <ele>436</ele>
        <time>2021-07-26T16:17:55Z</time>
      </trkpt>
      <trkpt lat="45.91622" lon="4.04552">
        <ele>394</ele>
        <time>2021-07-26T16:21:48Z</time>
      </trkpt>
      <trkpt lat="45.91927" lon="4.04638">
        <ele>360</ele>
        <time>2021-07-26T16:25:57Z</time>
      </trkpt>
      <trkpt lat="45.91635" lon="4.0484">
        <ele>368</ele>
        <time>2021-07-26T16:30:17Z</time>
      </trkpt>
      <trkpt lat="45.91673" lon="4.04916">
        <ele>363</ele>
        <time>2021-07-26T16:31:09Z</time>
      </trkpt>
      <trkpt lat="45.9159" lon="4.0511">
        <ele>367</ele>
        <time>2021-07-26T16:33:16Z</time>
      </trkpt>
      <trkpt lat="45.91595" lon="4.04947">
        <ele>377</ele>
        <time>2021-07-26T16:34:47Z</time>
      </trkpt>
      <trkpt lat="45.91414" lon="4.04936">
        <ele>402</ele>
        <time>2021-07-26T16:37:12Z</time>
      </trkpt>
      <trkpt lat="45.91155" lon="4.04773">
        <ele>445</ele>
        <time>2021-07-26T16:40:58Z</time>
      </trkpt>
      <trkpt lat="45.91116" lon="4.04655">
        <ele>457</ele>
        <time>2021-07-26T16:42:11Z</time>
      </trkpt>
      <trkpt lat="45.90824" lon="4.0491">
        <ele>423</ele>
        <time>2021-07-26T16:46:44Z</time>
      </trkpt>
      <trkpt lat="45.90714" lon="4.05123">
        <ele>400</ele>
        <time>2021-07-26T16:49:12Z</time>
      </trkpt>
      <trkpt lat="45.90655" lon="4.05535">
        <ele>364</ele>
        <time>2021-07-26T16:53:07Z</time>
      </trkpt>
      <trkpt lat="45.90681" lon="4.0576">
        <ele>345</ele>
        <time>2021-07-26T16:55:14Z</time>
      </trkpt>
      <trkpt lat="45.90761" lon="4.05815">
        <ele>333</ele>
        <time>2021-07-26T16:56:25Z</time>
      </trkpt>
      <trkpt lat="45.90841" lon="4.05979">
        <ele>324</ele>
        <time>2021-07-26T16:58:16Z</time>
      </trkpt>
      <trkpt lat="45.91039" lon="4.06142">
        <ele>316</ele>
        <time>2021-07-26T17:01:19Z</time>
      </trkpt>
      <trkpt lat="45.9106" lon="4.06254">
        <ele>319</ele>
        <time>2021-07-26T17:02:24Z</time>
      </trkpt>
      <trkpt lat="45.91" lon="4.06342">
        <ele>323</ele>
        <time>2021-07-26T17:03:32Z</time>
      </trkpt>
      <trkpt lat="45.90806" lon="4.0623">
        <ele>346</ele>
        <time>2021-07-26T17:06:20Z</time>
      </trkpt>
      <trkpt lat="45.90717" lon="4.06104">
        <ele>374</ele>
        <time>2021-07-26T17:08:00Z</time>
      </trkpt>
      <trkpt lat="45.9067" lon="4.06305">
        <ele>384</ele>
        <time>2021-07-26T17:09:58Z</time>
      </trkpt>
      <trkpt lat="45.90398" lon="4.063">
        <ele>413</ele>
        <time>2021-07-26T17:13:36Z</time>
      </trkpt>
      <trkpt lat="45.903" lon="4.06155">
        <ele>435</ele>
        <time>2021-07-26T17:15:28Z</time>
      </trkpt>
      <trkpt lat="45.90068" lon="4.06076">
        <ele>455</ele>
        <time>2021-07-26T17:18:39Z</time>
      </trkpt>
      <trkpt lat="45.9" lon="4.06091">
        <ele>456</ele>
        <time>2021-07-26T17:19:34Z</time>
      </trkpt>
      <trkpt lat="45.89727" lon="4.06015">
        <ele>466</ele>
        <time>2021-07-26T17:23:17Z</time>
      </trkpt>
      <trkpt lat="45.89761" lon="4.05807">
        <ele>473</ele>
        <time>2021-07-26T17:25:16Z</time>
      </trkpt>
      <trkpt lat="45.89925" lon="4.05281">
        <ele>465</ele>
        <time>2021-07-26T17:30:37Z</time>
      </trkpt>
      <trkpt lat="45.90055" lon="4.05111">
        <ele>477</ele>
        <time>2021-07-26T17:32:58Z</time>
      </trkpt>
      <trkpt lat="45.90258" lon="4.05014">
        <ele>487</ele>
        <time>2021-07-26T17:35:49Z</time>
      </trkpt>
      <trkpt lat="45.90427" lon="4.04801">
        <ele>505</ele>
        <time>2021-07-26T17:38:49Z</time>
      </trkpt>
      <trkpt lat="45.90495" lon="4.04601">
        <ele>511</ele>
        <time>2021-07-26T17:40:53Z</time>
      </trkpt>
      <trkpt lat="45.90849" lon="4.04322">
        <ele>508</ele>
        <time>2021-07-26T17:46:16Z</time>
      </trkpt>
      <trkpt lat="45.90786" lon="4.04024">
        <ele>532</ele>
        <time>2021-07-26T17:49:10Z</time>
      </trkpt>
      <trkpt lat="45.90596" lon="4.03751">
        <ele>522</ele>
        <time>2021-07-26T17:52:45Z</time>
      </trkpt>
      <trkpt lat="45.90452" lon="4.03434">
        <ele>501</ele>
        <time>2021-07-26T17:56:16Z</time>
      </trkpt>
      <trkpt lat="45.90411" lon="4.02997">
        <ele>518</ele>
        <time>2021-07-26T18:00:22Z</time>
      </trkpt>
      <trkpt lat="45.90279" lon="4.02732">
        <ele>525</ele>
        <time>2021-07-26T18:03:23Z</time>
      </trkpt>
      <trkpt lat="45.9024" lon="4.02626">
        <ele>525</ele>
        <time>2021-07-26T18:04:30Z</time>
      </trkpt>
    </trkseg>
  </trk>
</gpx>